TVF4209 EGPH-LFPO
Flight info
| Callsign | TVF4209 |
|---|---|
| Flight time | 1h 28m |
| Altitude | 37000 |
| Route | GOSAM P600 FENIK L612 ELBUS DCT NAVSO DCT AKOMU DCT VAMEB UL612 HON UN859 DVL/N0348F190 A34 BOBSA |
| Aircraft | B738/M-SDE2E3FGHIJ1RWXY/LB1 |
Departure
| Time | 2026-04-20 15:09 |
|---|---|
| Airport | Edinburgh Airport (EGPH) |
Arrival
| Time | 2026-04-20 16:38 |
|---|---|
| Airport | Paris-Orly Airport (LFPO) |
| Time | Latitude | Longitude | Altitude | Speed | Heading |
|---|---|---|---|---|---|
| 2026-04-20 14:15 | 55.94813 | -3.35750 | 106 ft | 0 kts | 208° |
| 2026-04-20 14:57 | 55.94823 | -3.35741 | 106 ft | 4 kts | 211° |
| 2026-04-20 14:58 | 55.94845 | -3.35714 | 106 ft | 4 kts | 221° |
| 2026-04-20 14:58 | 55.94863 | -3.35679 | 106 ft | 4 kts | 244° |
| 2026-04-20 14:58 | 55.94866 | -3.35641 | 106 ft | 2 kts | 297° |
| 2026-04-20 14:58 | 55.94865 | -3.35639 | 106 ft | 1 kts | 298° |
| 2026-04-20 15:01 | 55.94871 | -3.35658 | 105 ft | 8 kts | 299° |
| 2026-04-20 15:02 | 55.94904 | -3.35767 | 106 ft | 11 kts | 298° |
| 2026-04-20 15:02 | 55.94952 | -3.35861 | 106 ft | 10 kts | 340° |
| 2026-04-20 15:02 | 55.95021 | -3.35835 | 106 ft | 10 kts | 6° |
| 2026-04-20 15:02 | 55.95070 | -3.35917 | 104 ft | 10 kts | 300° |
| 2026-04-20 15:03 | 55.95099 | -3.36028 | 105 ft | 10 kts | 291° |
| 2026-04-20 15:03 | 55.95121 | -3.36140 | 106 ft | 9 kts | 288° |
| 2026-04-20 15:03 | 55.95137 | -3.36251 | 106 ft | 9 kts | 269° |
| 2026-04-20 15:03 | 55.95112 | -3.36354 | 104 ft | 9 kts | 237° |
| 2026-04-20 15:04 | 55.95078 | -3.36449 | 106 ft | 10 kts | 238° |
| 2026-04-20 15:04 | 55.95036 | -3.36574 | 106 ft | 14 kts | 238° |
| 2026-04-20 15:04 | 55.94980 | -3.36742 | 105 ft | 18 kts | 239° |
| 2026-04-20 15:04 | 55.94909 | -3.36948 | 106 ft | 21 kts | 238° |
| 2026-04-20 15:05 | 55.94835 | -3.37166 | 106 ft | 20 kts | 239° |
| 2026-04-20 15:05 | 55.94764 | -3.37379 | 105 ft | 20 kts | 239° |
| 2026-04-20 15:05 | 55.94694 | -3.37584 | 105 ft | 19 kts | 239° |
| 2026-04-20 15:05 | 55.94626 | -3.37783 | 105 ft | 18 kts | 239° |
| 2026-04-20 15:06 | 55.94561 | -3.37974 | 104 ft | 18 kts | 238° |
| 2026-04-20 15:06 | 55.94497 | -3.38159 | 106 ft | 17 kts | 237° |
| 2026-04-20 15:06 | 55.94438 | -3.38339 | 106 ft | 17 kts | 240° |
| 2026-04-20 15:06 | 55.94380 | -3.38513 | 106 ft | 16 kts | 238° |
| 2026-04-20 15:07 | 55.94322 | -3.38677 | 106 ft | 15 kts | 238° |
| 2026-04-20 15:07 | 55.94284 | -3.38828 | 106 ft | 11 kts | 279° |
| 2026-04-20 15:07 | 55.94308 | -3.38886 | 105 ft | 2 kts | 317° |
| 2026-04-20 15:07 | 55.94317 | -3.38900 | 105 ft | 4 kts | 322° |
| 2026-04-20 15:08 | 55.94378 | -3.38965 | 107 ft | 12 kts | 342° |
| 2026-04-20 15:08 | 55.94434 | -3.38915 | 108 ft | 0 kts | 57° |
| 2026-04-20 15:08 | 55.94436 | -3.38910 | 108 ft | 3 kts | 57° |
| 2026-04-20 15:09 | 55.94565 | -3.38539 | 106 ft | 73 kts | 60° |
| 2026-04-20 15:09 | 55.94945 | -3.37407 | 104 ft | 137 kts | 59° |
| 2026-04-20 15:09 | 55.95468 | -3.35821 | 641 ft | 147 kts | 60° |
| 2026-04-20 15:09 | 55.96026 | -3.34252 | 1328 ft | 157 kts | 55° |
| 2026-04-20 15:10 | 55.96771 | -3.32809 | 2064 ft | 162 kts | 39° |
| 2026-04-20 15:10 | 55.97719 | -3.31482 | 2430 ft | 190 kts | 41° |
| 2026-04-20 15:10 | 55.98758 | -3.29814 | 2739 ft | 211 kts | 44° |
| 2026-04-20 15:10 | 55.99939 | -3.28110 | 3178 ft | 226 kts | 29° |
| 2026-04-20 15:11 | 56.01506 | -3.27202 | 3464 ft | 253 kts | 8° |
| 2026-04-20 15:11 | 56.03282 | -3.27340 | 4202 ft | 258 kts | 346° |
| 2026-04-20 15:11 | 56.04855 | -3.28810 | 5076 ft | 260 kts | 319° |
| 2026-04-20 15:11 | 56.05926 | -3.31522 | 5570 ft | 278 kts | 290° |
| 2026-04-20 15:12 | 56.06203 | -3.34877 | 6130 ft | 278 kts | 266° |
| 2026-04-20 15:12 | 56.05927 | -3.37159 | 6066 ft | 278 kts | 245° |
| 2026-04-20 15:12 | 56.04847 | -3.39962 | 6023 ft | 273 kts | 230° |
| 2026-04-20 15:12 | 56.04002 | -3.42948 | 6009 ft | 268 kts | 254° |
| 2026-04-20 15:13 | 56.03516 | -3.46162 | 5995 ft | 268 kts | 254° |
| 2026-04-20 15:13 | 56.03010 | -3.49338 | 6000 ft | 270 kts | 253° |
| 2026-04-20 15:13 | 56.02466 | -3.52558 | 5992 ft | 271 kts | 252° |
| 2026-04-20 15:13 | 56.01900 | -3.55761 | 5995 ft | 271 kts | 252° |
| 2026-04-20 15:14 | 56.01320 | -3.58962 | 6003 ft | 271 kts | 251° |
| 2026-04-20 15:14 | 56.00727 | -3.62166 | 5992 ft | 272 kts | 251° |
| 2026-04-20 15:14 | 56.00126 | -3.65372 | 5986 ft | 272 kts | 251° |
| 2026-04-20 15:14 | 55.99524 | -3.68559 | 5995 ft | 270 kts | 251° |
| 2026-04-20 15:15 | 55.98920 | -3.71739 | 5992 ft | 269 kts | 251° |
| 2026-04-20 15:15 | 55.98316 | -3.74904 | 5992 ft | 269 kts | 251° |
| 2026-04-20 15:15 | 55.97711 | -3.78066 | 5992 ft | 269 kts | 251° |
| 2026-04-20 15:15 | 55.97105 | -3.81219 | 5984 ft | 269 kts | 251° |
| 2026-04-20 15:16 | 55.96499 | -3.84378 | 5992 ft | 269 kts | 250° |
| 2026-04-20 15:16 | 55.95668 | -3.87340 | 5980 ft | 268 kts | 230° |
| 2026-04-20 15:16 | 55.94390 | -3.89754 | 6167 ft | 270 kts | 224° |
| 2026-04-20 15:16 | 55.93032 | -3.92104 | 6884 ft | 273 kts | 224° |
| 2026-04-20 15:17 | 55.91669 | -3.94445 | 7685 ft | 274 kts | 224° |
| 2026-04-20 15:17 | 55.90282 | -3.96828 | 8455 ft | 278 kts | 223° |
| 2026-04-20 15:17 | 55.88878 | -3.99247 | 9196 ft | 282 kts | 224° |
| 2026-04-20 15:17 | 55.87466 | -4.01684 | 9932 ft | 285 kts | 224° |
| 2026-04-20 15:18 | 55.86032 | -4.04162 | 10624 ft | 290 kts | 224° |
| 2026-04-20 15:18 | 55.84531 | -4.06754 | 10849 ft | 313 kts | 224° |
| 2026-04-20 15:18 | 55.82920 | -4.09538 | 11156 ft | 330 kts | 224° |
| 2026-04-20 15:18 | 55.81165 | -4.12237 | 11724 ft | 337 kts | 210° |
| 2026-04-20 15:19 | 55.78966 | -4.13581 | 12468 ft | 337 kts | 184° |
| 2026-04-20 15:19 | 55.76635 | -4.13313 | 13243 ft | 337 kts | 171° |
| 2026-04-20 15:19 | 55.74297 | -4.12747 | 13936 ft | 342 kts | 172° |
| 2026-04-20 15:19 | 55.71921 | -4.12207 | 14612 ft | 346 kts | 172° |
| 2026-04-20 15:20 | 55.69522 | -4.11686 | 15335 ft | 349 kts | 173° |
| 2026-04-20 15:20 | 55.67095 | -4.11181 | 16045 ft | 353 kts | 173° |
| 2026-04-20 15:20 | 55.64643 | -4.10685 | 16745 ft | 356 kts | 173° |
| 2026-04-20 15:20 | 55.62172 | -4.10193 | 17413 ft | 360 kts | 173° |
| 2026-04-20 15:21 | 55.59670 | -4.09699 | 18073 ft | 363 kts | 173° |
| 2026-04-20 15:21 | 55.57181 | -4.09208 | 18693 ft | 367 kts | 173° |
| 2026-04-20 15:21 | 55.54629 | -4.08707 | 19324 ft | 371 kts | 173° |
| 2026-04-20 15:21 | 55.52054 | -4.08200 | 19911 ft | 375 kts | 173° |
| 2026-04-20 15:22 | 55.49487 | -4.07250 | 20489 ft | 379 kts | 163° |
| 2026-04-20 15:22 | 55.47037 | -4.05488 | 21038 ft | 383 kts | 153° |
| 2026-04-20 15:22 | 55.44679 | -4.03225 | 21615 ft | 387 kts | 151° |
| 2026-04-20 15:22 | 55.42327 | -4.00882 | 22121 ft | 391 kts | 150° |
| 2026-04-20 15:23 | 55.39951 | -3.98510 | 22664 ft | 394 kts | 150° |
| 2026-04-20 15:23 | 55.37563 | -3.96148 | 23270 ft | 394 kts | 151° |
| 2026-04-20 15:23 | 55.35160 | -3.93798 | 23768 ft | 398 kts | 151° |
| 2026-04-20 15:23 | 55.32720 | -3.91432 | 24183 ft | 403 kts | 152° |
| 2026-04-20 15:24 | 55.30250 | -3.89046 | 24639 ft | 406 kts | 152° |
| 2026-04-20 15:24 | 55.27760 | -3.86649 | 25058 ft | 411 kts | 152° |
| 2026-04-20 15:24 | 55.25246 | -3.84230 | 25464 ft | 415 kts | 152° |
| 2026-04-20 15:24 | 55.22702 | -3.81788 | 25873 ft | 418 kts | 151° |
| 2026-04-20 15:25 | 55.20121 | -3.79387 | 26264 ft | 422 kts | 153° |
| 2026-04-20 15:25 | 55.17475 | -3.77079 | 26622 ft | 426 kts | 154° |
| 2026-04-20 15:25 | 55.14795 | -3.74807 | 26997 ft | 430 kts | 154° |
| 2026-04-20 15:25 | 55.12092 | -3.72532 | 27384 ft | 433 kts | 154° |
| 2026-04-20 15:26 | 55.09365 | -3.70230 | 27716 ft | 437 kts | 154° |
| 2026-04-20 15:26 | 55.06620 | -3.67903 | 28064 ft | 440 kts | 154° |
| 2026-04-20 15:26 | 55.03854 | -3.65550 | 28392 ft | 444 kts | 154° |
| 2026-04-20 15:26 | 55.01066 | -3.63174 | 28730 ft | 447 kts | 154° |
| 2026-04-20 15:27 | 54.98263 | -3.60785 | 29062 ft | 450 kts | 154° |
| 2026-04-20 15:27 | 54.95440 | -3.58380 | 29359 ft | 453 kts | 154° |
| 2026-04-20 15:27 | 54.92601 | -3.55964 | 29650 ft | 456 kts | 154° |
| 2026-04-20 15:27 | 54.89740 | -3.53533 | 29933 ft | 459 kts | 154° |
| 2026-04-20 15:28 | 54.86859 | -3.51091 | 30179 ft | 463 kts | 154° |
| 2026-04-20 15:28 | 54.83956 | -3.48633 | 30477 ft | 465 kts | 154° |
| 2026-04-20 15:28 | 54.81041 | -3.46168 | 30802 ft | 466 kts | 154° |
| 2026-04-20 15:28 | 54.78125 | -3.43708 | 31081 ft | 468 kts | 154° |
| 2026-04-20 15:29 | 54.75183 | -3.41229 | 31329 ft | 471 kts | 154° |
| 2026-04-20 15:29 | 54.72231 | -3.38747 | 31602 ft | 473 kts | 154° |
| 2026-04-20 15:29 | 54.69276 | -3.36267 | 31957 ft | 472 kts | 154° |
| 2026-04-20 15:29 | 54.66326 | -3.33794 | 32328 ft | 471 kts | 154° |
| 2026-04-20 15:30 | 54.63381 | -3.31329 | 32681 ft | 470 kts | 154° |
| 2026-04-20 15:30 | 54.60441 | -3.28871 | 33021 ft | 470 kts | 154° |
| 2026-04-20 15:30 | 54.57499 | -3.26416 | 33336 ft | 470 kts | 154° |
| 2026-04-20 15:30 | 54.54554 | -3.23963 | 33630 ft | 470 kts | 154° |
| 2026-04-20 15:31 | 54.51651 | -3.21548 | 33966 ft | 469 kts | 155° |
| 2026-04-20 15:31 | 54.48723 | -3.19115 | 34343 ft | 466 kts | 155° |
| 2026-04-20 15:31 | 54.45808 | -3.16698 | 34661 ft | 466 kts | 155° |
| 2026-04-20 15:31 | 54.42884 | -3.14279 | 34899 ft | 466 kts | 155° |
| 2026-04-20 15:32 | 54.39956 | -3.11860 | 35162 ft | 466 kts | 155° |
| 2026-04-20 15:32 | 54.37037 | -3.09453 | 35424 ft | 466 kts | 155° |
| 2026-04-20 15:32 | 54.34113 | -3.07044 | 35672 ft | 466 kts | 155° |
| 2026-04-20 15:32 | 54.31192 | -3.04641 | 35915 ft | 466 kts | 155° |
| 2026-04-20 15:33 | 54.28268 | -3.02241 | 36151 ft | 466 kts | 155° |
| 2026-04-20 15:33 | 54.25338 | -2.99838 | 36383 ft | 466 kts | 155° |
| 2026-04-20 15:33 | 54.22411 | -2.97440 | 36616 ft | 466 kts | 155° |
| 2026-04-20 15:33 | 54.19483 | -2.95045 | 36848 ft | 466 kts | 155° |
| 2026-04-20 15:34 | 54.16559 | -2.92664 | 37144 ft | 464 kts | 155° |
| 2026-04-20 15:34 | 54.13617 | -2.90424 | 37294 ft | 465 kts | 157° |
| 2026-04-20 15:34 | 54.10620 | -2.88281 | 37287 ft | 469 kts | 158° |
| 2026-04-20 15:35 | 54.04566 | -2.83992 | 37284 ft | 472 kts | 158° |
| 2026-04-20 15:35 | 53.98530 | -2.79630 | 37273 ft | 470 kts | 158° |
| 2026-04-20 15:36 | 53.92505 | -2.75305 | 37264 ft | 469 kts | 158° |
| 2026-04-20 15:36 | 53.86509 | -2.70990 | 37265 ft | 468 kts | 158° |
| 2026-04-20 15:37 | 53.80524 | -2.66654 | 37267 ft | 467 kts | 158° |
| 2026-04-20 15:37 | 53.74549 | -2.62355 | 37268 ft | 466 kts | 158° |
| 2026-04-20 15:38 | 53.68578 | -2.58091 | 37275 ft | 466 kts | 158° |
| 2026-04-20 15:38 | 53.62598 | -2.53828 | 37278 ft | 467 kts | 158° |
| 2026-04-20 15:39 | 53.56606 | -2.49559 | 37278 ft | 468 kts | 158° |
| 2026-04-20 15:39 | 53.50639 | -2.45313 | 37278 ft | 469 kts | 158° |
| 2026-04-20 15:40 | 53.44585 | -2.41023 | 37286 ft | 469 kts | 158° |
| 2026-04-20 15:40 | 53.38597 | -2.36804 | 37287 ft | 471 kts | 158° |
| 2026-04-20 15:41 | 53.32555 | -2.32557 | 37299 ft | 471 kts | 158° |
| 2026-04-20 15:41 | 53.26497 | -2.28309 | 37293 ft | 472 kts | 159° |
| 2026-04-20 15:42 | 53.20423 | -2.24101 | 37295 ft | 473 kts | 159° |
| 2026-04-20 15:42 | 53.14333 | -2.19925 | 37291 ft | 474 kts | 159° |
| 2026-04-20 15:43 | 53.08230 | -2.15716 | 37282 ft | 475 kts | 159° |
| 2026-04-20 15:43 | 53.02125 | -2.11490 | 37288 ft | 475 kts | 159° |
| 2026-04-20 15:44 | 52.96028 | -2.07285 | 37284 ft | 475 kts | 159° |
| 2026-04-20 15:44 | 52.89919 | -2.03088 | 37285 ft | 475 kts | 159° |
| 2026-04-20 15:45 | 52.83809 | -1.98904 | 37285 ft | 475 kts | 159° |
| 2026-04-20 15:45 | 52.77693 | -1.94729 | 37285 ft | 475 kts | 160° |
| 2026-04-20 15:46 | 52.71575 | -1.90566 | 37293 ft | 476 kts | 160° |
| 2026-04-20 15:46 | 52.65449 | -1.86410 | 37295 ft | 476 kts | 160° |
| 2026-04-20 15:47 | 52.59317 | -1.82262 | 37297 ft | 477 kts | 160° |
| 2026-04-20 15:47 | 52.53223 | -1.78152 | 37292 ft | 477 kts | 160° |
| 2026-04-20 15:48 | 52.47074 | -1.74017 | 37297 ft | 478 kts | 160° |
| 2026-04-20 15:48 | 52.40911 | -1.69885 | 37296 ft | 478 kts | 160° |
| 2026-04-20 15:49 | 52.34734 | -1.65818 | 37298 ft | 478 kts | 163° |
| 2026-04-20 15:49 | 52.28424 | -1.62429 | 37298 ft | 478 kts | 166° |
| 2026-04-20 15:50 | 52.22066 | -1.59225 | 37288 ft | 478 kts | 166° |
| 2026-04-20 15:50 | 52.15713 | -1.55978 | 37285 ft | 479 kts | 165° |
| 2026-04-20 15:51 | 52.09357 | -1.52690 | 37275 ft | 479 kts | 165° |
| 2026-04-20 15:51 | 52.02997 | -1.49391 | 37263 ft | 480 kts | 165° |
| 2026-04-20 15:52 | 51.96640 | -1.46114 | 37265 ft | 479 kts | 166° |
| 2026-04-20 15:52 | 51.90291 | -1.42854 | 37266 ft | 478 kts | 166° |
| 2026-04-20 15:53 | 51.80789 | -1.37983 | 37267 ft | 477 kts | 166° |
| 2026-04-20 15:53 | 51.74464 | -1.34763 | 37268 ft | 476 kts | 166° |
| 2026-04-20 15:54 | 51.68144 | -1.31583 | 37266 ft | 476 kts | 166° |
| 2026-04-20 15:54 | 51.61815 | -1.28392 | 37266 ft | 476 kts | 166° |
| 2026-04-20 15:55 | 51.55547 | -1.25209 | 37266 ft | 476 kts | 166° |
| 2026-04-20 15:55 | 51.50606 | -1.22711 | 37266 ft | 476 kts | 166° |
| 2026-04-20 15:56 | 51.44459 | -1.18650 | 37268 ft | 480 kts | 157° |
| 2026-04-20 15:56 | 51.38433 | -1.14028 | 37255 ft | 480 kts | 158° |
| 2026-04-20 15:57 | 51.32368 | -1.09580 | 37250 ft | 480 kts | 159° |
| 2026-04-20 15:57 | 51.26333 | -1.05005 | 37238 ft | 482 kts | 154° |
| 2026-04-20 15:58 | 51.20514 | -0.99651 | 37235 ft | 483 kts | 152° |
| 2026-04-20 15:58 | 51.14734 | -0.94151 | 37240 ft | 484 kts | 152° |
| 2026-04-20 15:59 | 51.09922 | -0.89645 | 37238 ft | 482 kts | 152° |
| 2026-04-20 15:59 | 51.04126 | -0.84303 | 37252 ft | 482 kts | 153° |
| 2026-04-20 16:00 | 50.98309 | -0.78985 | 37247 ft | 482 kts | 153° |
| 2026-04-20 16:00 | 50.92507 | -0.73695 | 37252 ft | 482 kts | 153° |
| 2026-04-20 16:01 | 50.86691 | -0.68404 | 37246 ft | 482 kts | 153° |
| 2026-04-20 16:01 | 50.80887 | -0.63137 | 37247 ft | 481 kts | 153° |
| 2026-04-20 16:02 | 50.75075 | -0.57877 | 37240 ft | 481 kts | 153° |
| 2026-04-20 16:02 | 50.69257 | -0.52627 | 37237 ft | 481 kts | 153° |
| 2026-04-20 16:03 | 50.63443 | -0.47396 | 37245 ft | 481 kts | 153° |
| 2026-04-20 16:03 | 50.57625 | -0.42177 | 37242 ft | 481 kts | 153° |
| 2026-04-20 16:04 | 50.51814 | -0.36980 | 37246 ft | 481 kts | 153° |
| 2026-04-20 16:04 | 50.45980 | -0.31777 | 37233 ft | 482 kts | 153° |
| 2026-04-20 16:05 | 50.40190 | -0.26625 | 37234 ft | 481 kts | 153° |
| 2026-04-20 16:05 | 50.34362 | -0.21455 | 37233 ft | 481 kts | 153° |
| 2026-04-20 16:06 | 50.28543 | -0.16309 | 37223 ft | 481 kts | 153° |
| 2026-04-20 16:06 | 50.22714 | -0.11167 | 37219 ft | 481 kts | 153° |
| 2026-04-20 16:07 | 50.16880 | -0.06034 | 37221 ft | 481 kts | 154° |
| 2026-04-20 16:07 | 50.11029 | -0.00959 | 37211 ft | 480 kts | 157° |
| 2026-04-20 16:08 | 50.04784 | 0.02402 | 37214 ft | 473 kts | 170° |
| 2026-04-20 16:08 | 49.98398 | 0.04945 | 37205 ft | 474 kts | 170° |
| 2026-04-20 16:09 | 49.91995 | 0.07508 | 37136 ft | 476 kts | 170° |
| 2026-04-20 16:09 | 49.88801 | 0.08811 | 36756 ft | 473 kts | 170° |
| 2026-04-20 16:09 | 49.85632 | 0.10117 | 36377 ft | 468 kts | 170° |
| 2026-04-20 16:10 | 49.82508 | 0.11410 | 35971 ft | 462 kts | 170° |
| 2026-04-20 16:10 | 49.79420 | 0.12690 | 35549 ft | 457 kts | 170° |
| 2026-04-20 16:10 | 49.76358 | 0.13955 | 35138 ft | 454 kts | 171° |
| 2026-04-20 16:10 | 49.73314 | 0.15210 | 34718 ft | 452 kts | 171° |
| 2026-04-20 16:11 | 49.70287 | 0.16455 | 34309 ft | 450 kts | 171° |
| 2026-04-20 16:11 | 49.67266 | 0.17694 | 33907 ft | 449 kts | 171° |
| 2026-04-20 16:11 | 49.64250 | 0.18929 | 33492 ft | 447 kts | 171° |
| 2026-04-20 16:11 | 49.61250 | 0.20157 | 33077 ft | 446 kts | 171° |
| 2026-04-20 16:12 | 49.58248 | 0.21384 | 32671 ft | 445 kts | 172° |
| 2026-04-20 16:12 | 49.55262 | 0.22604 | 32257 ft | 443 kts | 172° |
| 2026-04-20 16:12 | 49.52286 | 0.23819 | 31857 ft | 442 kts | 172° |
| 2026-04-20 16:12 | 49.49323 | 0.25027 | 31439 ft | 440 kts | 172° |
| 2026-04-20 16:13 | 49.46377 | 0.26227 | 31037 ft | 437 kts | 172° |
| 2026-04-20 16:13 | 49.43448 | 0.27420 | 30633 ft | 434 kts | 172° |
| 2026-04-20 16:13 | 49.40535 | 0.28602 | 30236 ft | 432 kts | 173° |
| 2026-04-20 16:13 | 49.37598 | 0.29786 | 29856 ft | 442 kts | 173° |
| 2026-04-20 16:14 | 49.34593 | 0.30991 | 29429 ft | 450 kts | 173° |
| 2026-04-20 16:14 | 49.31565 | 0.32211 | 28988 ft | 449 kts | 172° |
| 2026-04-20 16:14 | 49.28554 | 0.33433 | 28535 ft | 445 kts | 172° |
| 2026-04-20 16:14 | 49.25609 | 0.34629 | 28104 ft | 442 kts | 172° |
| 2026-04-20 16:15 | 49.22649 | 0.35828 | 27671 ft | 438 kts | 172° |
| 2026-04-20 16:15 | 49.19680 | 0.37025 | 27245 ft | 434 kts | 172° |
| 2026-04-20 16:15 | 49.16812 | 0.38180 | 26823 ft | 430 kts | 172° |
| 2026-04-20 16:15 | 49.13892 | 0.39354 | 26395 ft | 427 kts | 172° |
| 2026-04-20 16:16 | 49.11070 | 0.40486 | 25986 ft | 424 kts | 172° |
| 2026-04-20 16:16 | 49.08192 | 0.41637 | 25562 ft | 420 kts | 172° |
| 2026-04-20 16:16 | 49.05407 | 0.42750 | 25155 ft | 418 kts | 172° |
| 2026-04-20 16:16 | 49.02606 | 0.43868 | 24743 ft | 415 kts | 172° |
| 2026-04-20 16:17 | 48.99827 | 0.44978 | 24336 ft | 412 kts | 172° |
| 2026-04-20 16:17 | 48.97060 | 0.46081 | 23926 ft | 409 kts | 172° |
| 2026-04-20 16:17 | 48.94317 | 0.47173 | 23513 ft | 406 kts | 172° |
| 2026-04-20 16:17 | 48.91590 | 0.48255 | 23121 ft | 404 kts | 171° |
| 2026-04-20 16:18 | 48.88879 | 0.49332 | 22718 ft | 401 kts | 171° |
| 2026-04-20 16:18 | 48.86182 | 0.50402 | 22315 ft | 399 kts | 171° |
| 2026-04-20 16:18 | 48.83507 | 0.51462 | 21918 ft | 397 kts | 171° |
| 2026-04-20 16:18 | 48.80842 | 0.52517 | 21518 ft | 394 kts | 171° |
| 2026-04-20 16:19 | 48.78202 | 0.53561 | 21124 ft | 391 kts | 171° |
| 2026-04-20 16:19 | 48.75581 | 0.54596 | 20739 ft | 388 kts | 171° |
| 2026-04-20 16:19 | 48.72971 | 0.55631 | 20354 ft | 386 kts | 169° |
| 2026-04-20 16:19 | 48.70508 | 0.57286 | 20065 ft | 390 kts | 150° |
| 2026-04-20 16:20 | 48.68398 | 0.59851 | 19828 ft | 389 kts | 137° |
| 2026-04-20 16:20 | 48.66702 | 0.63023 | 19578 ft | 389 kts | 126° |
| 2026-04-20 16:20 | 48.65194 | 0.66414 | 19334 ft | 389 kts | 125° |
| 2026-04-20 16:20 | 48.63696 | 0.69834 | 19099 ft | 391 kts | 125° |
| 2026-04-20 16:21 | 48.62195 | 0.73260 | 18850 ft | 389 kts | 125° |
| 2026-04-20 16:21 | 48.60702 | 0.76646 | 18592 ft | 386 kts | 125° |
| 2026-04-20 16:21 | 48.59217 | 0.79996 | 18341 ft | 383 kts | 125° |
| 2026-04-20 16:21 | 48.57732 | 0.83326 | 18089 ft | 381 kts | 125° |
| 2026-04-20 16:22 | 48.56252 | 0.86632 | 17838 ft | 379 kts | 125° |
| 2026-04-20 16:22 | 48.54778 | 0.89916 | 17555 ft | 378 kts | 125° |
| 2026-04-20 16:22 | 48.53301 | 0.93202 | 17200 ft | 377 kts | 125° |
| 2026-04-20 16:22 | 48.51829 | 0.96471 | 16837 ft | 376 kts | 125° |
| 2026-04-20 16:23 | 48.50572 | 0.99909 | 16545 ft | 373 kts | 112° |
| 2026-04-20 16:23 | 48.49783 | 1.03601 | 16307 ft | 368 kts | 105° |
| 2026-04-20 16:23 | 48.49115 | 1.07305 | 16052 ft | 364 kts | 104° |
| 2026-04-20 16:23 | 48.48471 | 1.10932 | 15768 ft | 354 kts | 104° |
| 2026-04-20 16:24 | 48.47834 | 1.14491 | 15439 ft | 351 kts | 104° |
| 2026-04-20 16:24 | 48.47194 | 1.18030 | 15094 ft | 349 kts | 104° |
| 2026-04-20 16:24 | 48.46551 | 1.21550 | 14746 ft | 347 kts | 104° |
| 2026-04-20 16:24 | 48.45908 | 1.25040 | 14394 ft | 345 kts | 104° |
| 2026-04-20 16:25 | 48.45267 | 1.28501 | 14042 ft | 343 kts | 104° |
| 2026-04-20 16:25 | 48.44626 | 1.31952 | 13686 ft | 341 kts | 104° |
| 2026-04-20 16:25 | 48.43988 | 1.35372 | 13335 ft | 338 kts | 105° |
| 2026-04-20 16:25 | 48.43353 | 1.38775 | 12983 ft | 336 kts | 105° |
| 2026-04-20 16:26 | 48.42729 | 1.42109 | 12633 ft | 334 kts | 105° |
| 2026-04-20 16:26 | 48.42100 | 1.45466 | 12276 ft | 332 kts | 105° |
| 2026-04-20 16:26 | 48.41474 | 1.48801 | 11920 ft | 330 kts | 105° |
| 2026-04-20 16:26 | 48.40850 | 1.52119 | 11571 ft | 328 kts | 105° |
| 2026-04-20 16:27 | 48.40231 | 1.55410 | 11230 ft | 325 kts | 105° |
| 2026-04-20 16:27 | 48.39615 | 1.58672 | 10889 ft | 323 kts | 105° |
| 2026-04-20 16:27 | 48.39002 | 1.61910 | 10550 ft | 320 kts | 105° |
| 2026-04-20 16:27 | 48.38396 | 1.65116 | 10310 ft | 314 kts | 103° |
| 2026-04-20 16:28 | 48.38246 | 1.68302 | 10143 ft | 299 kts | 79° |
| 2026-04-20 16:28 | 48.38927 | 1.71170 | 9847 ft | 288 kts | 57° |
| 2026-04-20 16:28 | 48.40134 | 1.73460 | 9522 ft | 281 kts | 38° |
| 2026-04-20 16:28 | 48.41693 | 1.75141 | 9190 ft | 272 kts | 33° |
| 2026-04-20 16:29 | 48.43256 | 1.76716 | 8842 ft | 268 kts | 33° |
| 2026-04-20 16:29 | 48.44799 | 1.78266 | 8523 ft | 265 kts | 33° |
| 2026-04-20 16:29 | 48.46326 | 1.79808 | 8214 ft | 264 kts | 34° |
| 2026-04-20 16:29 | 48.47860 | 1.81367 | 7908 ft | 266 kts | 34° |
| 2026-04-20 16:30 | 48.49387 | 1.82926 | 7587 ft | 265 kts | 34° |
| 2026-04-20 16:30 | 48.50904 | 1.84481 | 7275 ft | 263 kts | 34° |
| 2026-04-20 16:30 | 48.52410 | 1.86026 | 6967 ft | 260 kts | 34° |
| 2026-04-20 16:30 | 48.53890 | 1.87547 | 6663 ft | 255 kts | 34° |
| 2026-04-20 16:31 | 48.55343 | 1.89042 | 6355 ft | 249 kts | 35° |
| 2026-04-20 16:31 | 48.56754 | 1.90503 | 6081 ft | 242 kts | 38° |
| 2026-04-20 16:31 | 48.57864 | 1.92298 | 6032 ft | 237 kts | 53° |
| 2026-04-20 16:31 | 48.58813 | 1.94364 | 5734 ft | 239 kts | 57° |
| 2026-04-20 16:32 | 48.59651 | 1.96517 | 5416 ft | 236 kts | 60° |
| 2026-04-20 16:32 | 48.60423 | 1.98679 | 5104 ft | 232 kts | 62° |
| 2026-04-20 16:32 | 48.61159 | 2.00784 | 4801 ft | 228 kts | 62° |
| 2026-04-20 16:32 | 48.61887 | 2.02878 | 4512 ft | 223 kts | 61° |
| 2026-04-20 16:33 | 48.62614 | 2.04957 | 4212 ft | 219 kts | 61° |
| 2026-04-20 16:33 | 48.63308 | 2.06941 | 3923 ft | 212 kts | 61° |
| 2026-04-20 16:33 | 48.63977 | 2.08855 | 3677 ft | 201 kts | 60° |
| 2026-04-20 16:33 | 48.64637 | 2.10738 | 3399 ft | 201 kts | 60° |
| 2026-04-20 16:34 | 48.65236 | 2.12446 | 3153 ft | 198 kts | 60° |
| 2026-04-20 16:34 | 48.65856 | 2.14220 | 2877 ft | 183 kts | 60° |
| 2026-04-20 16:34 | 48.66420 | 2.15830 | 2653 ft | 166 kts | 60° |
| 2026-04-20 16:34 | 48.66940 | 2.17310 | 2434 ft | 154 kts | 60° |
| 2026-04-20 16:35 | 48.67447 | 2.18751 | 2254 ft | 158 kts | 60° |
| 2026-04-20 16:35 | 48.67970 | 2.20240 | 2049 ft | 162 kts | 60° |
| 2026-04-20 16:35 | 48.68486 | 2.21709 | 1821 ft | 154 kts | 62° |
| 2026-04-20 16:35 | 48.68973 | 2.23095 | 1613 ft | 146 kts | 63° |
| 2026-04-20 16:36 | 48.69442 | 2.24424 | 1437 ft | 142 kts | 62° |
| 2026-04-20 16:36 | 48.69909 | 2.25757 | 1237 ft | 145 kts | 62° |
| 2026-04-20 16:36 | 48.70364 | 2.27116 | 1048 ft | 144 kts | 63° |
| 2026-04-20 16:36 | 48.70835 | 2.28441 | 851 ft | 144 kts | 60° |
| 2026-04-20 16:37 | 48.71312 | 2.29768 | 675 ft | 143 kts | 62° |
| 2026-04-20 16:37 | 48.71789 | 2.31096 | 472 ft | 144 kts | 61° |
| 2026-04-20 16:37 | 48.72257 | 2.32419 | 314 ft | 140 kts | 62° |
| 2026-04-20 16:37 | 48.72668 | 2.33582 | 293 ft | 101 kts | 63° |
| 2026-04-20 16:38 | 48.72898 | 2.34237 | 292 ft | 45 kts | 62° |
| 2026-04-20 16:38 | 48.72997 | 2.34613 | 291 ft | 36 kts | 81° |
| 2026-04-20 16:38 | 48.73031 | 2.34971 | 292 ft | 31 kts | 81° |
| 2026-04-20 16:38 | 48.73019 | 2.35214 | 294 ft | 22 kts | 120° |
| 2026-04-20 16:39 | 48.72995 | 2.35259 | 290 ft | 0 kts | 134° |
| 2026-04-20 16:39 | 48.72979 | 2.35278 | 290 ft | 8 kts | 146° |
| 2026-04-20 16:39 | 48.72920 | 2.35328 | 293 ft | 10 kts | 139° |
| 2026-04-20 16:40 | 48.72879 | 2.35414 | 294 ft | 10 kts | 145° |
| 2026-04-20 16:40 | 48.72814 | 2.35448 | 294 ft | 10 kts | 165° |
| 2026-04-20 16:40 | 48.72751 | 2.35474 | 291 ft | 9 kts | 164° |
| 2026-04-20 16:40 | 48.72688 | 2.35501 | 290 ft | 9 kts | 164° |
| 2026-04-20 16:41 | 48.72628 | 2.35527 | 293 ft | 9 kts | 164° |
| 2026-04-20 16:41 | 48.72568 | 2.35553 | 290 ft | 9 kts | 164° |
| 2026-04-20 16:41 | 48.72511 | 2.35578 | 293 ft | 8 kts | 164° |
| 2026-04-20 16:41 | 48.72464 | 2.35623 | 290 ft | 8 kts | 117° |
| 2026-04-20 16:42 | 48.72468 | 2.35707 | 293 ft | 8 kts | 75° |
| 2026-04-20 16:42 | 48.72477 | 2.35789 | 290 ft | 8 kts | 89° |
| 2026-04-20 16:42 | 48.72474 | 2.35869 | 294 ft | 8 kts | 97° |
| 2026-04-20 16:42 | 48.72468 | 2.35947 | 290 ft | 7 kts | 95° |
| 2026-04-20 16:43 | 48.72471 | 2.36022 | 294 ft | 7 kts | 81° |
| 2026-04-20 16:43 | 48.72481 | 2.36092 | 293 ft | 4 kts | 76° |
| 2026-04-20 16:43 | 48.72486 | 2.36121 | 290 ft | 3 kts | 75° |
| 2026-04-20 16:43 | 48.72496 | 2.36168 | 290 ft | 6 kts | 62° |
| 2026-04-20 16:44 | 48.72516 | 2.36179 | 290 ft | 3 kts | 5° |
| 2026-04-20 16:44 | 48.72536 | 2.36177 | 293 ft | 3 kts | 353° |
| 2026-04-20 16:44 | 48.72557 | 2.36168 | 290 ft | 4 kts | 342° |
| 2026-04-20 16:44 | 48.72584 | 2.36155 | 290 ft | 3 kts | 344° |
| 2026-04-20 16:45 | 48.72587 | 2.36154 | 290 ft | 0 kts | 344° |